Terminal Aerodrome Forecast
Issued by NWS Blacksburg, VA

Current Version | Previous Version | Graphics & Text | Print | Product List | Glossary On
Versions: 1 2 3 4 5 6 7 8 9 10 11 12 13 14 15 16 17
000
FTUS41 KRNK 141125
TAFBLF
TAF
KBLF 141125Z 1412/1512 18012G20KT P6SM VCSH SCT020 OVC060
     FM141700 20013G23KT P6SM -SHRA OVC040
     FM142000 20015G25KT P6SM OVC050
     FM150000 19011KT P6SM OVC035
     FM150500 19009G19KT 5SM -SHRA OVC015=

USA.gov is the U.S. government's official web portal to all federal, state and local government web resources and services.